WFDK1: Walnut River, Winfield, KS

Data processed at Thu Jun 20 2019 23:50


All information presented herein is the property of the government of the United States of America and may be revised or deleted at any time without prior notice.
Dissemination of this information without the expressed written consent of the Public Affairs Office, Tulsa District U.S. Army Corps of Engineers is strictly prohibited.
These data are gathered electronically and, as presented, have not undergone any form of quality control. These data are not guaranteed to be valid or correct.
Go to home page.
Go to station list.
Go to home page.

Upstream stations:

Downstream station:
Previous Day
Next Day
Current Day
    
SHEF ID:       WFDK1     WALNUT R AT WINFIELD, KS
STATION TYPE:  
Regulating: Stage =    18.00, Flow =    17822

               PRECIP     STAGE  STAGE(2)  RIV-FLOW  BAT-LOAD
                   in        ft        ft       cfs      volt
              Ccp-Rev   Ccp-Rev   Ccp-Rev   Ccp-Rev   Ccp-Rev
(US/Central)
06/20 00:00      0.00     18.03      ----     17866     12.57
06/20 01:00      0.00     18.08      ----     17938     12.57
06/20 02:00      0.00     18.05      ----     17895     12.57
06/20 03:00      0.00     18.08      ----     17938     12.49
06/20 04:00      0.00     17.97      ----     17779     12.49
06/20 05:00      0.00     17.86      ----     17620     12.49
06/20 06:00      0.00     17.63      ----     17289     12.49
06/20 07:00      0.00     17.35      ----     16888     12.49
06/20 08:00      0.00     17.05      ----     16461     12.57
06/20 09:00      0.00     16.65      ----     15897     12.81
06/20 10:00      0.00     16.16      ----     15212     13.13
06/20 11:00      0.00     15.65      ----     14508     13.21
06/20 12:00      0.00     15.15      ----     13827     13.53
06/20 13:00      0.00     14.57      ----     13047     13.53
06/20 14:00      0.00     14.08      ----     12398     13.29
06/20 15:00      0.00     13.58      ----     11744     13.13
06/20 16:00      0.00     13.12      ----     11152     12.97
06/20 17:00      0.00     12.63      ----     10529     12.97
06/20 18:00      0.00     12.23      ----     10028     12.89
06/20 19:00      0.00     11.83      ----      9534     12.73
06/20 20:00      0.00     11.42      ----      9033     12.73
06/20 21:00      0.00     11.08      ----      8624     12.65
06/20 22:00      0.00     10.75      ----      8232     12.65
06/20 23:00      0.00     10.42      ----      7844     12.65